Time;durP1;ratioP1;P1;durP2;ratioP2;P2;SDS_P1;SDS_P2;PMS_P1;PMS_P2;Temp;Humidity;BMP_temperature;BMP_pressure;BME280_temperature;BME280_humidity;BME280_pressure;Samples;Min_cycle;Max_cycle;Signal;HPM_P1;HPM_P2
2023/09/30 00:00:34;;;;;;;5.93;5.32;;;;;;;18.32;56.25;99491.63;5107199;28;20040;-72
2023/09/30 00:03:01;;;;;;;8.52;5.90;;;;;;;18.33;57.06;99490.66;5107236;28;20052;-72
2023/09/30 00:05:30;;;;;;;6.68;5.65;;;;;;;18.25;57.06;99485.09;5107234;28;20040;-72
2023/09/30 00:07:56;;;;;;;6.65;5.95;;;;;;;18.14;57.38;99482.47;5106097;28;20047;-72
2023/09/30 00:10:23;;;;;;;9.88;5.85;;;;;;;18.18;58.18;99498.16;5106876;28;20054;-72
2023/09/30 00:12:50;;;;;;;8.60;7.72;;;;;;;18.13;58.06;99489.66;5107514;28;20101;-72
2023/09/30 00:15:17;;;;;;;7.63;6.05;;;;;;;18.03;57.00;99456.56;5106064;28;20040;-72
2023/09/30 00:17:43;;;;;;;7.50;6.10;;;;;;;18.12;58.41;99489.78;5106917;28;20058;-72
2023/09/30 00:20:11;;;;;;;6.32;5.15;;;;;;;18.10;57.98;99489.06;5105948;28;20288;-72
2023/09/30 00:22:39;;;;;;;6.55;5.70;;;;;;;17.92;57.63;99459.28;5107081;28;20054;-72
2023/09/30 00:25:07;;;;;;;8.98;5.85;;;;;;;18.03;58.13;99488.72;5106767;28;20051;-72
2023/09/30 00:27:34;;;;;;;7.57;5.10;;;;;;;18.10;57.23;99483.69;5106870;28;20035;-72
2023/09/30 00:30:01;;;;;;;6.65;5.95;;;;;;;18.09;58.79;99484.69;5106887;28;20044;-72
2023/09/30 00:32:28;;;;;;;6.80;6.00;;;;;;;18.10;58.56;99481.88;5106395;28;20051;-72
2023/09/30 00:34:54;;;;;;;7.22;5.70;;;;;;;18.06;57.82;99476.91;5106833;28;20040;-72
2023/09/30 00:37:21;;;;;;;6.22;5.57;;;;;;;18.13;58.35;99480.75;5106870;28;20145;-72
2023/09/30 00:39:49;;;;;;;8.70;5.13;;;;;;;18.10;57.97;99479.19;5105679;28;20183;-72
2023/09/30 00:42:16;;;;;;;6.35;5.57;;;;;;;18.00;58.33;99472.91;5106997;28;20036;-72
2023/09/30 00:44:43;;;;;;;8.52;6.03;;;;;;;17.76;59.24;99434.75;5105558;28;20040;-72
2023/09/30 00:47:10;;;;;;;6.13;5.35;;;;;;;18.03;59.48;99469.09;5106429;28;20141;-72
2023/09/30 00:49:38;;;;;;;7.63;5.88;;;;;;;18.07;59.00;99471.41;5105440;28;20116;-72
2023/09/30 00:52:05;;;;;;;8.82;6.05;;;;;;;18.02;60.15;99468.25;5088686;28;20063;-72
2023/09/30 00:54:32;;;;;;;8.85;5.78;;;;;;;18.01;59.64;99469.25;5104998;28;20341;-72
2023/09/30 00:57:01;;;;;;;7.15;6.15;;;;;;;18.00;59.95;99472.03;5106429;28;20044;-72
2023/09/30 00:59:30;;;;;;;6.53;4.93;;;;;;;17.07;59.59;99321.66;5106129;28;20325;-71
2023/09/30 01:02:00;;;;;;;5.93;5.05;;;;;;;18.01;61.26;99474.59;5106353;28;20094;-72
2023/09/30 01:04:28;;;;;;;7.15;5.53;;;;;;;17.80;58.92;99441.53;5104982;28;20063;-72
2023/09/30 01:06:57;;;;;;;9.10;6.43;;;;;;;17.91;60.99;99479.88;5106615;28;20044;-73
2023/09/30 01:09:23;;;;;;;6.20;5.45;;;;;;;17.70;60.30;99445.97;5105964;28;20062;-73
2023/09/30 01:11:51;;;;;;;7.47;5.30;;;;;;;17.89;61.19;99478.31;5105375;28;20304;-70
2023/09/30 01:14:29;;;;;;;6.20;4.95;;;;;;;17.88;60.37;99487.31;5105114;28;20119;-70
2023/09/30 01:16:56;;;;;;;6.82;5.07;;;;;;;17.69;61.33;99453.16;5105296;28;20109;-70
2023/09/30 01:19:24;;;;;;;6.03;5.43;;;;;;;17.53;62.36;99425.91;5104984;28;20044;-70
2023/09/30 01:21:54;;;;;;;8.75;5.25;;;;;;;17.81;61.30;99489.66;5106068;28;20047;-70
2023/09/30 01:24:21;;;;;;;7.00;5.40;;;;;;;17.28;60.86;99400.28;5105997;28;20077;-70
2023/09/30 01:26:48;;;;;;;7.68;6.03;;;;;;;17.83;61.35;99481.50;5105653;28;20036;-70
2023/09/30 01:29:15;;;;;;;7.45;6.25;;;;;;;17.79;61.24;99488.09;5105416;28;20040;-70
2023/09/30 01:31:41;;;;;;;7.35;6.00;;;;;;;17.81;61.18;99489.66;5105766;28;20051;-70
2023/09/30 01:34:10;;;;;;;7.47;5.85;;;;;;;17.79;60.89;99488.09;5105942;28;20044;-70
2023/09/30 01:36:37;;;;;;;6.63;5.93;;;;;;;17.71;61.57;99488.72;5105956;28;20107;-70
2023/09/30 01:39:07;;;;;;;6.60;5.40;;;;;;;17.48;61.08;99441.50;5105894;28;20060;-70
2023/09/30 01:41:34;;;;;;;6.53;5.15;;;;;;;17.09;62.25;99383.97;5106165;28;20039;-70
2023/09/30 01:44:01;;;;;;;6.30;5.13;;;;;;;17.69;61.14;99503.22;5104742;28;20207;-70
2023/09/30 01:46:27;;;;;;;7.07;6.20;;;;;;;17.73;61.64;99502.84;5105851;28;20094;-71
2023/09/30 01:48:54;;;;;;;6.85;5.35;;;;;;;17.70;61.12;99500.44;5105529;28;20048;-70
2023/09/30 01:51:21;;;;;;;6.97;5.80;;;;;;;17.52;60.56;99467.91;5105701;28;20291;-70
2023/09/30 01:53:48;;;;;;;6.53;5.93;;;;;;;17.75;61.67;99494.69;5104680;28;20048;-71
2023/09/30 01:56:17;;;;;;;7.28;6.20;;;;;;;17.69;61.77;99505.91;5105857;28;20044;-72
2023/09/30 01:58:44;;;;;;;6.78;5.97;;;;;;;17.71;61.28;99496.78;5105449;28;20203;-72
2023/09/30 02:01:10;;;;;;;7.57;6.30;;;;;;;17.76;61.36;99504.44;5106043;28;20292;-72
2023/09/30 02:03:38;;;;;;;9.75;8.00;;;;;;;17.61;60.36;99501.19;5105754;28;20066;-72
2023/09/30 02:06:04;;;;;;;7.72;6.57;;;;;;;17.61;61.75;99477.91;5105402;28;20036;-72
2023/09/30 02:08:31;;;;;;;7.50;6.70;;;;;;;17.68;60.78;99496.16;5105677;28;20052;-72
2023/09/30 02:10:58;;;;;;;10.32;6.75;;;;;;;17.75;61.23;99497.38;5105764;28;20055;-72
2023/09/30 02:13:27;;;;;;;7.10;6.40;;;;;;;17.77;61.97;99506.97;5104415;28;20040;-71
2023/09/30 02:15:55;;;;;;;7.38;6.57;;;;;;;17.83;62.10;99511.84;5105943;28;20048;-72
2023/09/30 02:18:23;;;;;;;7.78;6.30;;;;;;;17.54;61.05;99479.34;5104365;28;20044;-72
2023/09/30 02:20:50;;;;;;;9.65;6.75;;;;;;;17.64;61.66;99490.22;5105307;28;20040;-72
2023/09/30 02:23:17;;;;;;;7.35;5.90;;;;;;;17.55;61.13;99482.88;5105574;28;20044;-72
2023/09/30 02:25:44;;;;;;;8.88;6.22;;;;;;;17.78;61.86;99519.41;5105215;28;20048;-72
2023/09/30 02:28:11;;;;;;;8.63;6.28;;;;;;;17.81;61.85;99519.16;5087655;28;20052;-72
2023/09/30 02:30:39;;;;;;;6.57;5.90;;;;;;;17.80;61.53;99520.13;5105627;28;20043;-72
2023/09/30 02:33:07;;;;;;;5.95;5.30;;;;;;;17.80;61.31;99505.88;5105969;28;20054;-72
2023/09/30 02:35:33;;;;;;;10.32;5.97;;;;;;;17.74;61.54;99483.13;5105089;28;20055;-72
2023/09/30 02:38:00;;;;;;;6.18;5.25;;;;;;;18.05;61.11;99524.31;5106177;28;20086;-72
2023/09/30 02:40:27;;;;;;;6.40;5.30;;;;;;;18.08;61.11;99516.00;5108182;28;20047;-72
2023/09/30 02:42:53;;;;;;;6.85;5.10;;;;;;;18.14;61.02;99517.34;5108745;28;20044;-72
2023/09/30 02:45:20;;;;;;;9.48;5.25;;;;;;;18.20;60.99;99527.53;5108683;28;20246;-72
2023/09/30 02:47:48;;;;;;;6.38;4.88;;;;;;;18.24;60.68;99519.09;5107886;28;20089;-72
2023/09/30 02:50:15;;;;;;;6.78;5.25;;;;;;;18.13;60.76;99489.66;5107668;28;20039;-73
2023/09/30 02:52:42;;;;;;;5.45;3.97;;;;;;;18.35;60.72;99525.41;5108852;28;20048;-73
2023/09/30 02:55:09;;;;;;;6.55;4.70;;;;;;;18.37;60.48;99513.56;5108458;28;20036;-72
2023/09/30 02:57:36;;;;;;;7.63;5.22;;;;;;;17.90;60.52;99426.38;5107597;28;20102;-72
2023/09/30 03:00:12;;;;;;;5.45;4.50;;;;;;;18.44;60.17;99519.25;5108697;28;20044;-72
2023/09/30 03:02:39;;;;;;;6.20;4.80;;;;;;;18.46;60.69;99509.25;5108391;28;20048;-72
2023/09/30 03:05:08;;;;;;;5.60;4.35;;;;;;;18.49;60.50;99511.66;5108062;28;20051;-73
2023/09/30 03:07:35;;;;;;;6.43;4.80;;;;;;;18.54;61.87;99512.16;5108041;28;20052;-73
2023/09/30 03:10:05;;;;;;;6.55;4.40;;;;;;;18.57;61.99;99507.38;5108106;28;20052;-73
2023/09/30 03:12:32;;;;;;;6.18;4.40;;;;;;;18.61;61.17;99515.16;5107343;28;20043;-73
2023/09/30 03:14:59;;;;;;;8.70;4.72;;;;;;;18.61;61.45;99517.84;5107406;28;20043;-72
2023/09/30 03:17:26;;;;;;;5.40;4.18;;;;;;;18.66;62.24;99518.31;5107374;28;20059;-73
2023/09/30 03:19:53;;;;;;;7.68;5.05;;;;;;;18.67;62.06;99517.31;5108012;28;20052;-73
2023/09/30 03:22:22;;;;;;;6.35;4.70;;;;;;;18.46;61.45;99487.78;5108301;28;20203;-72
2023/09/30 03:24:48;;;;;;;6.60;4.20;;;;;;;18.42;62.04;99494.38;5108200;28;20032;-72
2023/09/30 03:27:15;;;;;;;7.22;4.50;;;;;;;18.69;62.25;99518.91;5108165;28;20040;-73
2023/09/30 03:29:42;;;;;;;6.25;4.35;;;;;;;18.72;62.23;99518.63;5107005;28;20051;-72
2023/09/30 03:32:09;;;;;;;6.15;4.43;;;;;;;18.73;61.87;99519.47;5107901;28;20113;-72
2023/09/30 03:34:37;;;;;;;5.82;4.85;;;;;;;18.29;62.28;99446.28;5108212;28;20052;-73
2023/09/30 03:37:06;;;;;;;5.57;4.15;;;;;;;18.58;62.11;99490.28;5107617;28;20051;-73
2023/09/30 03:39:34;;;;;;;6.80;4.72;;;;;;;18.77;62.12;99521.75;5107855;28;20044;-72
2023/09/30 03:42:01;;;;;;;10.68;4.97;;;;;;;18.77;62.60;99521.75;5107874;28;20221;-72
2023/09/30 03:44:29;;;;;;;7.13;5.13;;;;;;;18.77;62.60;99521.75;5107856;28;20032;-72
2023/09/30 03:46:56;;;;;;;6.10;4.60;;;;;;;18.80;62.42;99528.72;5107770;28;20169;-72
2023/09/30 03:49:23;;;;;;;7.70;4.88;;;;;;;18.85;62.97;99527.31;5106234;28;20048;-72
2023/09/30 03:51:50;;;;;;;6.07;4.20;;;;;;;18.86;63.47;99544.28;5106459;28;20054;-72
2023/09/30 03:54:18;;;;;;;6.65;4.85;;;;;;;18.87;63.86;99546.84;5106496;28;20059;-73
2023/09/30 03:56:46;;;;;;;7.95;4.88;;;;;;;18.64;64.67;99515.75;5106442;28;20044;-73
2023/09/30 03:59:13;;;;;;;7.30;4.88;;;;;;;18.80;65.77;99552.88;5107494;28;20040;-73
2023/09/30 04:01:40;;;;;;;7.20;4.50;;;;;;;18.87;65.85;99556.72;5107477;28;20035;-72
2023/09/30 04:04:09;;;;;;;7.28;5.53;;;;;;;18.89;66.90;99562.81;5107691;28;20078;-72
2023/09/30 04:06:38;;;;;;;11.80;5.28;;;;;;;18.91;66.85;99571.59;5107381;28;20043;-72
2023/09/30 04:09:09;;;;;;;8.48;5.60;;;;;;;18.91;67.77;99572.44;5107373;28;20039;-72
2023/09/30 04:11:36;;;;;;;8.13;5.50;;;;;;;18.58;67.16;99522.50;5107527;28;20105;-72
2023/09/30 04:14:05;;;;;;;8.07;5.32;;;;;;;18.97;67.34;99581.81;5107277;28;20049;-72
2023/09/30 04:16:32;;;;;;;8.80;6.25;;;;;;;18.73;68.14;99555.22;5105893;28;20047;-73
2023/09/30 04:19:00;;;;;;;9.07;6.60;;;;;;;18.94;67.10;99591.97;5106657;28;20272;-72
2023/09/30 04:21:27;;;;;;;10.05;6.72;;;;;;;18.37;67.95;99518.94;5107394;28;20036;-72
2023/09/30 04:23:54;;;;;;;10.88;6.78;;;;;;;18.89;67.94;99593.22;5106818;28;20032;-72
2023/09/30 04:26:21;;;;;;;11.85;7.90;;;;;;;18.90;67.97;99596.75;5107017;28;20304;-72
2023/09/30 04:28:48;;;;;;;12.60;7.40;;;;;;;18.87;68.34;99584.44;5106948;28;20036;-73
2023/09/30 04:31:18;;;;;;;11.02;6.88;;;;;;;18.73;68.60;99591.97;5106829;28;20048;-73
2023/09/30 04:33:45;;;;;;;11.45;7.90;;;;;;;18.61;68.17;99542.84;5107135;28;20101;-72
2023/09/30 04:36:12;;;;;;;12.48;7.78;;;;;;;18.95;67.75;99596.34;5106594;28;20039;-73
2023/09/30 04:38:39;;;;;;;10.43;7.07;;;;;;;18.89;67.89;99612.00;5105661;28;20040;-73
2023/09/30 04:41:07;;;;;;;12.25;7.30;;;;;;;18.65;68.54;99571.13;5106404;28;20054;-73
2023/09/30 04:43:34;;;;;;;10.45;7.10;;;;;;;18.88;68.56;99622.88;5105584;28;20063;-73
2023/09/30 04:46:01;;;;;;;13.40;8.30;;;;;;;18.30;68.04;99547.25;5106912;28;20326;-72
2023/09/30 04:48:29;;;;;;;12.43;7.15;;;;;;;18.90;68.43;99624.44;5105436;28;20125;-73
2023/09/30 04:50:56;;;;;;;12.60;8.38;;;;;;;18.88;68.22;99630.94;5106051;28;20063;-73
2023/09/30 04:53:24;;;;;;;13.07;7.80;;;;;;;18.90;68.54;99640.56;5106601;28;20318;-74
2023/09/30 04:55:51;;;;;;;14.73;7.70;;;;;;;18.86;68.38;99644.50;5106231;28;20043;-73
2023/09/30 04:58:18;;;;;;;14.40;8.40;;;;;;;18.79;68.39;99637.09;5106703;28;20085;-73
2023/09/30 05:00:44;;;;;;;13.40;8.98;;;;;;;18.83;68.35;99641.22;5105697;28;20044;-73
2023/09/30 05:03:11;;;;;;;15.07;8.35;;;;;;;18.85;67.92;99647.31;5106674;28;20070;-73
2023/09/30 05:05:39;;;;;;;12.50;8.13;;;;;;;18.88;68.54;99655.09;5106484;28;20043;-73
2023/09/30 05:08:07;;;;;;;13.63;8.63;;;;;;;18.71;69.70;99661.03;5106064;28;20296;-73
2023/09/30 05:10:34;;;;;;;12.18;7.82;;;;;;;18.83;68.74;99668.06;5105330;28;20047;-73
2023/09/30 05:13:01;;;;;;;15.13;8.48;;;;;;;18.78;68.93;99671.13;5106241;28;20036;-74
2023/09/30 05:15:29;;;;;;;16.23;9.18;;;;;;;18.77;68.69;99674.81;5106554;28;20040;-73
2023/09/30 05:17:55;;;;;;;13.07;7.82;;;;;;;18.79;68.70;99682.72;5105054;28;20399;-73
2023/09/30 05:20:24;;;;;;;17.13;9.05;;;;;;;18.81;67.89;99689.69;5105284;28;20093;-73
2023/09/30 05:22:52;;;;;;;18.63;8.65;;;;;;;18.44;68.09;99623.91;5106030;28;20105;-73
2023/09/30 05:25:19;;;;;;;14.32;9.18;;;;;;;18.78;68.13;99695.31;5106046;28;20052;-73
2023/09/30 05:27:48;;;;;;;15.23;9.85;;;;;;;18.82;68.21;99694.06;5106056;28;20232;-73
2023/09/30 05:30:15;;;;;;;14.98;9.07;;;;;;;18.82;68.15;99699.44;5105757;28;20052;-73
2023/09/30 05:32:42;;;;;;;14.43;8.93;;;;;;;18.49;68.34;99651.22;5104817;28;20055;-73
2023/09/30 05:35:12;;;;;;;12.30;8.02;;;;;;;18.79;68.09;99705.06;5105950;28;20238;-73
2023/09/30 05:37:40;;;;;;;13.75;8.23;;;;;;;18.85;68.17;99701.00;5105754;28;20040;-73
2023/09/30 05:40:18;;;;;;;13.77;8.07;;;;;;;18.64;68.08;99671.44;5105593;28;20035;-73
2023/09/30 05:42:46;;;;;;;13.18;7.85;;;;;;;18.79;67.85;99701.53;5106095;28;20066;-73
2023/09/30 05:45:13;;;;;;;14.32;9.07;;;;;;;18.83;67.94;99713.72;5105646;28;20137;-73
2023/09/30 05:47:40;;;;;;;13.98;8.80;;;;;;;18.84;67.93;99708.22;5104755;28;20048;-73
2023/09/30 05:50:09;;;;;;;12.90;8.05;;;;;;;18.86;67.18;99713.47;5105798;28;20169;-73
2023/09/30 05:52:37;;;;;;;14.52;8.70;;;;;;;18.84;67.65;99710.06;5105676;28;20349;-73
2023/09/30 05:55:04;;;;;;;12.50;8.13;;;;;;;18.62;67.51;99716.34;5105714;28;20315;-73
2023/09/30 05:57:32;;;;;;;15.07;8.55;;;;;;;18.47;67.07;99669.28;5105713;28;20040;-73
2023/09/30 05:59:59;;;;;;;15.90;10.07;;;;;;;18.75;67.29;99733.16;5105599;28;20353;-72
2023/09/30 06:02:26;;;;;;;14.35;8.90;;;;;;;18.57;67.56;99697.09;5104934;28;20063;-73
2023/09/30 06:04:53;;;;;;;15.02;9.43;;;;;;;18.34;66.98;99676.63;5104803;28;20075;-72
2023/09/30 06:07:20;;;;;;;15.30;9.55;;;;;;;18.75;66.84;99735.84;5105566;28;20036;-73
2023/09/30 06:09:48;;;;;;;15.75;9.02;;;;;;;18.79;66.59;99731.91;5105353;28;20040;-72
2023/09/30 06:12:14;;;;;;;15.02;8.77;;;;;;;18.78;66.47;99727.53;5106809;28;20039;-73
2023/09/30 06:14:43;;;;;;;14.95;10.48;;;;;;;18.72;66.93;99728.03;5109596;28;20044;-73
2023/09/30 06:17:10;;;;;;;15.18;9.70;;;;;;;18.42;66.71;99676.84;5109020;28;20067;-73
2023/09/30 06:19:37;;;;;;;16.17;8.98;;;;;;;18.74;66.68;99728.75;5109428;28;20036;-73
2023/09/30 06:22:04;;;;;;;16.92;9.13;;;;;;;18.72;66.30;99738.78;5109213;28;20036;-73
2023/09/30 06:24:31;;;;;;;16.65;9.55;;;;;;;18.68;66.74;99736.47;5107956;28;20047;-72
2023/09/30 06:26:58;;;;;;;17.08;9.82;;;;;;;18.71;67.02;99744.28;5109585;28;20299;-72
2023/09/30 06:29:24;;;;;;;15.82;9.40;;;;;;;18.70;66.03;99746.09;5109276;28;20044;-73
2023/09/30 06:31:53;;;;;;;16.35;8.70;;;;;;;18.67;66.25;99753.56;5108684;28;20044;-73
2023/09/30 06:34:19;;;;;;;16.75;10.00;;;;;;;18.74;65.94;99746.69;5109386;28;20104;-73
2023/09/30 06:36:46;;;;;;;15.35;9.50;;;;;;;18.56;65.70;99732.97;5109274;28;20122;-73
2023/09/30 06:39:13;;;;;;;17.15;9.25;;;;;;;18.68;65.90;99756.13;5108942;28;20047;-73
2023/09/30 06:41:40;;;;;;;14.10;8.60;;;;;;;18.77;66.20;99762.56;5109020;28;20048;-72
2023/09/30 06:44:06;;;;;;;16.10;10.10;;;;;;;18.75;65.93;99761.84;5109194;28;20043;-73
2023/09/30 06:46:34;;;;;;;13.40;8.48;;;;;;;18.73;66.31;99759.28;5107837;28;20208;-73
2023/09/30 06:49:02;;;;;;;17.20;9.43;;;;;;;18.73;65.86;99753.91;5108574;28;20044;-72
2023/09/30 06:51:28;;;;;;;15.95;10.73;;;;;;;18.70;65.44;99756.84;5108663;28;20050;-73
2023/09/30 06:53:55;;;;;;;16.00;9.27;;;;;;;18.70;65.87;99751.47;5108784;28;20055;-73
2023/09/30 06:56:22;;;;;;;15.75;9.35;;;;;;;17.93;65.80;99627.22;5109019;28;20295;-73
2023/09/30 06:58:49;;;;;;;13.48;8.95;;;;;;;18.58;66.35;99731.00;5107527;28;20035;-73
2023/09/30 07:01:17;;;;;;;15.90;8.90;;;;;;;18.76;65.92;99767.06;5108342;28;20044;-73
2023/09/30 07:03:45;;;;;;;13.30;7.88;;;;;;;18.49;65.78;99724.53;5108258;28;20052;-73
2023/09/30 07:06:13;;;;;;;17.90;10.15;;;;;;;18.79;65.47;99771.34;5108566;28;20212;-73
2023/09/30 07:08:39;;;;;;;15.48;8.82;;;;;;;18.82;65.16;99773.78;5108147;28;20042;-73
2023/09/30 07:11:07;;;;;;;16.95;9.95;;;;;;;18.83;65.55;99765.59;5108428;28;20051;-73
2023/09/30 07:13:35;;;;;;;17.17;9.48;;;;;;;18.83;65.16;99759.38;5108081;28;20036;-73
2023/09/30 07:16:02;;;;;;;16.50;9.43;;;;;;;18.77;65.40;99752.66;5108292;28;20043;-73
2023/09/30 07:18:29;;;;;;;19.70;9.50;;;;;;;18.79;65.74;99761.44;5107812;28;20071;-73
2023/09/30 07:20:55;;;;;;;18.73;11.48;;;;;;;18.84;64.93;99755.69;5107076;28;20044;-73
2023/09/30 07:23:23;;;;;;;13.98;8.27;;;;;;;18.90;64.99;99758.72;5106994;28;20063;-73
2023/09/30 07:25:50;;;;;;;18.60;10.80;;;;;;;18.98;64.65;99759.91;5108140;28;20059;-73
2023/09/30 07:28:17;;;;;;;15.48;8.98;;;;;;;19.01;64.63;99767.72;5108072;28;20048;-73
2023/09/30 07:30:45;;;;;;;14.73;8.70;;;;;;;18.71;63.87;99723.66;5107986;28;20050;-73
2023/09/30 07:33:11;;;;;;;13.98;8.75;;;;;;;19.04;64.16;99767.47;5107647;28;20304;-73
2023/09/30 07:35:39;;;;;;;14.43;8.38;;;;;;;19.05;64.02;99772.72;5106930;28;20043;-73
2023/09/30 07:38:06;;;;;;;15.02;8.98;;;;;;;19.03;63.44;99772.00;5107966;28;20116;-73
2023/09/30 07:40:34;;;;;;;13.90;8.30;;;;;;;19.04;63.75;99773.69;5107643;28;20105;-73
2023/09/30 07:43:01;;;;;;;14.85;9.18;;;;;;;19.11;63.90;99774.03;5107855;28;20040;-72
2023/09/30 07:45:27;;;;;;;15.30;9.27;;;;;;;19.11;64.09;99765.97;5106619;28;20105;-73
2023/09/30 07:47:54;;;;;;;12.70;7.80;;;;;;;19.13;63.95;99769.38;5107697;28;20047;-73
2023/09/30 07:50:21;;;;;;;14.98;10.02;;;;;;;18.87;63.90;99732.13;5107898;28;20072;-73
2023/09/30 07:52:48;;;;;;;17.38;9.73;;;;;;;18.77;63.38;99701.66;5107362;28;20085;-73
2023/09/30 07:55:15;;;;;;;15.05;9.30;;;;;;;19.28;63.96;99769.91;5107315;28;20044;-73
2023/09/30 07:57:44;;;;;;;16.00;9.68;;;;;;;19.30;63.35;99786.78;5107280;28;20044;-73
2023/09/30 08:00:15;;;;;;;16.25;8.93;;;;;;;19.32;63.82;99782.97;5107847;28;20043;-73
2023/09/30 08:02:42;;;;;;;16.52;9.68;;;;;;;19.48;62.89;99791.47;5107748;28;20055;-73
2023/09/30 08:05:10;;;;;;;18.17;9.88;;;;;;;19.57;62.34;99781.75;5106916;28;20109;-73
2023/09/30 08:07:38;;;;;;;16.52;8.85;;;;;;;19.61;61.52;99774.28;5106559;28;20119;-73
2023/09/30 08:10:06;;;;;;;16.52;9.30;;;;;;;19.76;61.83;99779.19;5107469;28;20044;-73
2023/09/30 08:12:33;;;;;;;13.95;8.52;;;;;;;19.66;61.42;99762.16;5107369;28;20105;-72
2023/09/30 08:15:03;;;;;;;14.57;9.43;;;;;;;19.78;61.72;99771.84;5106609;28;20051;-72
2023/09/30 08:17:30;;;;;;;14.48;8.88;;;;;;;19.55;61.40;99749.63;5105635;28;20056;-72
2023/09/30 08:19:56;;;;;;;13.55;8.43;;;;;;;19.70;61.97;99782.41;5107085;28;20059;-72
2023/09/30 08:22:27;;;;;;;16.30;8.98;;;;;;;19.68;61.21;99791.59;5106176;28;20089;-73
2023/09/30 08:24:54;;;;;;;14.63;8.88;;;;;;;19.77;61.15;99799.72;5106975;28;20063;-73
2023/09/30 08:27:21;;;;;;;15.00;8.70;;;;;;;19.81;61.42;99794.97;5107105;28;20052;-73
2023/09/30 08:29:48;;;;;;;14.75;8.82;;;;;;;19.88;61.10;99788.06;5107076;28;20105;-73
2023/09/30 08:32:16;;;;;;;16.45;9.75;;;;;;;19.94;60.67;99792.06;5106634;28;20055;-73
2023/09/30 08:34:42;;;;;;;16.15;8.73;;;;;;;19.99;60.75;99788.00;5105901;28;20044;-73
2023/09/30 08:37:10;;;;;;;15.30;8.98;;;;;;;20.05;59.88;99808.13;5105689;28;20295;-72
2023/09/30 08:39:39;;;;;;;15.57;9.20;;;;;;;19.78;60.49;99768.31;5105477;28;20040;-73
2023/09/30 08:42:09;;;;;;;13.52;7.82;;;;;;;20.09;59.87;99791.56;5106533;28;20097;-73
2023/09/30 08:44:39;;;;;;;17.33;8.10;;;;;;;20.18;60.01;99774.63;5106680;28;20039;-73
2023/09/30 08:47:09;;;;;;;12.68;8.48;;;;;;;20.31;59.95;99790.56;5105887;28;20051;-73
2023/09/30 08:49:40;;;;;;;14.10;8.82;;;;;;;20.36;59.59;99788.31;5106515;28;20051;-72
2023/09/30 08:52:07;;;;;;;15.63;9.40;;;;;;;19.85;59.09;99721.94;5105985;28;20048;-73
2023/09/30 08:54:34;;;;;;;14.38;8.40;;;;;;;20.02;59.16;99741.97;5106071;28;20319;-73
2023/09/30 08:57:03;;;;;;;14.63;8.48;;;;;;;20.32;58.60;99780.66;5106414;28;20050;-73
2023/09/30 08:59:30;;;;;;;17.23;9.00;;;;;;;20.44;58.97;99787.63;5106031;28;20047;-74
2023/09/30 09:01:59;;;;;;;16.30;9.05;;;;;;;20.41;58.94;99786.06;5105952;28;20040;-74
2023/09/30 09:04:26;;;;;;;14.13;8.40;;;;;;;20.18;58.79;99734.25;5105066;28;20036;-74
2023/09/30 09:06:55;;;;;;;15.15;8.27;;;;;;;20.43;58.35;99778.72;5105936;28;20048;-74
2023/09/30 09:09:23;;;;;;;17.60;9.52;;;;;;;19.85;58.00;99676.22;5104978;28;20070;-73
2023/09/30 09:11:50;;;;;;;13.57;7.80;;;;;;;20.47;58.27;99781.97;5104915;28;20116;-74
2023/09/30 09:14:17;;;;;;;13.45;8.10;;;;;;;20.46;58.46;99788.34;5105604;28;20043;-74
2023/09/30 09:16:54;;;;;;;14.68;9.35;;;;;;;20.59;58.58;99780.88;5105443;28;20059;-73
2023/09/30 09:19:22;;;;;;;14.07;8.32;;;;;;;20.57;58.33;99780.16;5104632;28;20293;-74
2023/09/30 09:21:57;;;;;;;16.85;9.18;;;;;;;20.69;57.56;99784.44;5105794;28;20052;-74
2023/09/30 09:24:31;;;;;;;14.48;8.73;;;;;;;20.68;58.15;99787.28;5105993;28;20082;-74
2023/09/30 09:27:05;;;;;;;;;;;;;;;20.67;58.28;99785.56;5105761;28;20040;-74
2023/09/30 09:29:31;;;;;;;11.55;7.60;;;;;;;20.67;58.01;99770.25;5104823;28;19916;-73
2023/09/30 09:32:08;;;;;;;14.02;8.27;;;;;;;20.41;57.11;99717.91;5105875;28;20055;-74
2023/09/30 09:34:35;;;;;;;15.15;9.00;;;;;;;20.80;57.49;99794.25;5105892;28;20048;-73
2023/09/30 09:37:17;;;;;;;11.60;8.20;;;;;;;20.76;57.66;99795.50;5105870;28;20055;-73
2023/09/30 09:39:52;;;;;;;13.13;7.85;;;;;;;20.27;58.19;99726.38;5105963;28;20056;-74
2023/09/30 09:42:27;;;;;;;12.82;8.18;;;;;;;20.64;58.02;99797.47;5105711;28;20043;-74
2023/09/30 09:44:56;;;;;;;13.05;7.80;;;;;;;20.50;57.13;99769.09;5104374;28;20050;-74
2023/09/30 09:47:24;;;;;;;13.68;8.02;;;;;;;20.57;57.31;99780.16;5108297;28;20050;-74
2023/09/30 09:49:51;;;;;;;12.23;6.82;;;;;;;20.71;57.96;99805.84;5110216;28;20031;-74
2023/09/30 09:52:21;;;;;;;15.00;8.48;;;;;;;20.13;58.38;99711.44;5109874;28;20112;-74
2023/09/30 09:54:49;;;;;;;15.38;8.30;;;;;;;20.65;58.00;99815.34;5109488;28;20036;-74
2023/09/30 09:57:18;;;;;;;15.07;8.35;;;;;;;20.61;58.14;99800.44;5109780;28;20291;-74
2023/09/30 09:59:47;;;;;;;14.10;7.90;;;;;;;20.62;58.13;99794.06;5109640;28;20111;-73
2023/09/30 10:02:15;;;;;;;15.70;8.38;;;;;;;20.64;58.51;99805.56;5109475;28;20043;-73
2023/09/30 10:04:44;;;;;;;13.40;7.97;;;;;;;20.64;58.19;99808.25;5109622;28;20044;-73
2023/09/30 10:07:16;;;;;;;14.73;8.13;;;;;;;20.66;58.55;99800.03;5091575;28;20386;-73
2023/09/30 10:09:51;;;;;;;14.98;8.32;;;;;;;20.48;58.57;99798.00;5108212;28;20040;-73
2023/09/30 10:12:21;;;;;;;12.98;7.57;;;;;;;20.01;58.72;99717.91;5108257;28;20048;-73
2023/09/30 10:14:48;;;;;;;13.18;7.15;;;;;;;20.42;58.58;99782.38;5109484;28;20196;-73
2023/09/30 10:17:15;;;;;;;14.40;8.77;;;;;;;20.53;58.15;99802.97;5109246;28;20060;-73
2023/09/30 10:20:07;;;;;;;15.60;7.78;;;;;;;20.55;58.81;99797.44;5108552;28;20056;-73
2023/09/30 10:22:34;;;;;;;14.20;8.23;;;;;;;20.50;58.34;99804.09;5109398;28;20063;-73
2023/09/30 10:25:41;;;;;;;14.38;8.48;;;;;;;20.57;58.86;99806.25;5108915;28;20052;-73
2023/09/30 10:28:40;;;;;;;12.63;7.53;;;;;;;20.58;58.55;99800.72;5108031;28;20044;-73
2023/09/30 10:31:17;;;;;;;15.27;8.63;;;;;;;20.58;59.38;99789.94;5109205;28;20071;-73
2023/09/30 10:34:20;;;;;;;13.15;7.55;;;;;;;20.59;59.28;99797.03;5109013;28;20102;-73
2023/09/30 10:36:50;;;;;;;13.50;7.30;;;;;;;20.56;59.70;99808.06;5109521;28;20044;-73
2023/09/30 10:39:55;;;;;;;13.48;7.78;;;;;;;18.01;59.20;99372.69;5109630;28;20035;-73
2023/09/30 10:42:46;;;;;;;13.43;7.65;;;;;;;20.51;58.88;99796.88;5108475;28;20043;-73
2023/09/30 10:45:53;;;;;;;13.25;8.52;;;;;;;20.51;58.81;99807.63;5108251;28;20040;-74
2023/09/30 10:48:40;;;;;;;12.93;7.28;;;;;;;20.51;59.30;99804.94;5087089;28;20126;-74
2023/09/30 10:51:20;;;;;;;15.40;8.93;;;;;;;20.49;59.57;99810.47;5108960;28;20118;-74
2023/09/30 10:53:51;;;;;;;13.60;8.43;;;;;;;20.52;59.35;99806.66;5108916;28;20048;-74
2023/09/30 10:56:18;;;;;;;14.20;7.55;;;;;;;20.59;59.54;99797.03;5108279;28;20047;-74
2023/09/30 10:58:48;;;;;;;14.40;8.60;;;;;;;20.65;59.29;99793.78;5107616;28;20040;-74
2023/09/30 11:01:16;;;;;;;13.27;7.78;;;;;;;20.63;58.26;99763.44;5107617;28;20300;-73
2023/09/30 11:03:44;;;;;;;13.07;8.10;;;;;;;20.45;58.61;99730.97;5108286;28;20032;-74
2023/09/30 11:06:17;;;;;;;13.02;7.30;;;;;;;20.30;57.97;99685.72;5107199;28;20044;-73
2023/09/30 11:08:46;;;;;;;13.68;7.78;;;;;;;20.81;57.54;99755.53;5108169;28;20234;-74
2023/09/30 11:11:14;;;;;;;13.48;7.80;;;;;;;20.97;57.89;99784.63;5107200;28;20234;-74
2023/09/30 11:13:41;;;;;;;13.23;7.43;;;;;;;20.97;58.12;99785.47;5108466;28;20040;-74
2023/09/30 11:16:09;;;;;;;14.52;7.80;;;;;;;20.78;58.53;99753.97;5107956;28;20074;-74
2023/09/30 11:18:37;;;;;;;13.95;7.25;;;;;;;18.12;57.54;99296.69;5107810;28;20227;-73
2023/09/30 11:21:06;;;;;;;13.23;7.50;;;;;;;20.95;58.08;99778.53;5107091;28;20082;-74
2023/09/30 11:23:34;;;;;;;12.15;7.93;;;;;;;20.90;57.22;99778.94;5107793;28;20044;-73
2023/09/30 11:26:01;;;;;;;12.90;7.82;;;;;;;20.88;58.08;99769.31;5108286;28;20192;-73
2023/09/30 11:28:37;;;;;;;12.90;8.18;;;;;;;20.91;58.26;99769.88;5107939;28;20040;-73
2023/09/30 11:31:06;;;;;;;13.70;7.53;;;;;;;20.92;58.31;99768.88;5107951;28;20052;-73
2023/09/30 11:33:49;;;;;;;13.02;6.93;;;;;;;20.88;57.57;99774.69;5107781;28;20221;-72
2023/09/30 11:36:17;;;;;;;12.60;7.05;;;;;;;20.86;57.57;99772.13;5107970;28;20052;-72